Swastika, Canada
Current Conditions -  °F | °C
As of 11:00 AM on Tuesday 27 Jan 2015 (Local Time) from CYXR Reporting Station
Clear Clear  
Wind Chill: -16°   Ceiling: Unl
Heat Index: -4°   Visibility: 9mi
Dew Point: -8°   Wind: 6mph
Humidity: 85%   Direction: 330°NNW
Pressure: 30.28"   Gusts: NA
Location:  48.1°N, 80.1°W
Report Text: CYXR 271600Z AUTO 33005KT 9SM CLR M20/M22 A3028 RMK SLP282
Loading
Personal Weather Stations






























Interactive Weather Map New forecast layout! Learn more

10-Day Weather Forecast

Advertisements
Track Severe Weather on mobile